createdAt,value
2022-09-01T00:01:22.069Z,14.79
2022-09-01T00:04:13.550Z,14.97
2022-09-01T00:07:00.699Z,14.99
2022-09-01T00:09:48.546Z,14.90
2022-09-01T00:12:36.542Z,14.96
2022-09-01T00:15:24.260Z,14.57
2022-09-01T00:18:11.387Z,14.64
2022-09-01T00:20:59.848Z,14.64
2022-09-01T00:23:46.987Z,14.90
2022-09-01T00:26:34.080Z,15.02
2022-09-01T00:29:21.302Z,14.98
2022-09-01T00:32:08.315Z,15.14
2022-09-01T00:34:55.314Z,14.99
2022-09-01T00:37:42.723Z,15.26
2022-09-01T00:40:29.874Z,15.37
2022-09-01T00:43:36.906Z,15.10
2022-09-01T00:46:30.431Z,15.05
2022-09-01T00:49:35.753Z,15.28
2022-09-01T00:52:32.085Z,15.18
2022-09-01T00:55:25.360Z,15.18
2022-09-01T00:58:18.367Z,15.16
2022-09-01T01:01:08.372Z,15.20
2022-09-01T01:03:55.313Z,15.38
2022-09-01T01:06:49.883Z,15.20
2022-09-01T01:09:40.205Z,15.20
2022-09-01T01:12:27.916Z,14.95
2022-09-01T01:15:15.314Z,14.83
2022-09-01T01:18:02.413Z,14.92
2022-09-01T01:21:21.642Z,14.68
2022-09-01T01:24:33.377Z,14.68
2022-09-01T01:27:22.073Z,14.98
2022-09-01T01:30:11.970Z,15.08
2022-09-01T01:33:04.736Z,15.04
2022-09-01T01:35:53.645Z,15.26
2022-09-01T01:38:43.262Z,15.24
2022-09-01T01:41:32.165Z,15.35
2022-09-01T01:44:27.972Z,15.27
2022-09-01T01:47:15.146Z,14.96
2022-09-01T01:50:03.203Z,14.97
2022-09-01T01:52:58.445Z,14.86
2022-09-01T01:55:49.744Z,15.13
2022-09-01T01:58:36.757Z,15.33
2022-09-01T02:01:28.846Z,15.26
2022-09-01T02:04:17.083Z,15.27
2022-09-01T02:07:04.050Z,15.22
2022-09-01T02:09:50.970Z,15.34
2022-09-01T02:12:38.035Z,15.29
2022-09-01T02:15:25.587Z,15.29
2022-09-01T02:18:19.382Z,15.08
2022-09-01T02:21:15.128Z,15.00
2022-09-01T02:24:08.563Z,15.26
2022-09-01T02:26:59.270Z,15.13
2022-09-01T02:29:46.197Z,15.23
2022-09-01T02:32:33.150Z,15.42
2022-09-01T02:35:20.404Z,15.35
2022-09-01T02:38:08.814Z,15.53
2022-09-01T02:40:58.591Z,15.43
2022-09-01T02:43:46.353Z,15.54
2022-09-01T02:46:33.358Z,15.53
2022-09-01T02:49:25.911Z,15.62
2022-09-01T02:52:15.957Z,15.80
2022-09-01T02:55:03.229Z,15.74
2022-09-01T02:57:51.540Z,15.77
2022-09-01T03:00:39.850Z,15.75
2022-09-01T03:03:26.968Z,15.47
2022-09-01T03:06:15.079Z,15.18
2022-09-01T03:09:12.468Z,15.27
2022-09-01T03:11:59.534Z,15.45
2022-09-01T03:14:46.461Z,15.16
2022-09-01T03:17:33.462Z,15.10
2022-09-01T03:20:21.745Z,15.32
2022-09-01T03:23:10.439Z,15.28
2022-09-01T03:25:58.046Z,15.32
2022-09-01T03:28:46.744Z,15.09
2022-09-01T03:31:33.742Z,14.91
2022-09-01T03:34:21.724Z,14.88
2022-09-01T03:37:09.786Z,14.96
2022-09-01T03:40:00.097Z,15.01
2022-09-01T03:42:47.220Z,15.17
2022-09-01T03:45:38.338Z,15.21
2022-09-01T03:48:28.945Z,15.32
2022-09-01T03:51:16.512Z,15.26
2022-09-01T03:54:03.497Z,15.35
2022-09-01T03:56:51.013Z,15.35
2022-09-01T03:59:43.388Z,15.19
2022-09-01T04:02:30.747Z,15.04
2022-09-01T04:05:23.016Z,14.90
2022-09-01T04:08:12.294Z,15.14
2022-09-01T04:11:03.926Z,15.07
2022-09-01T04:13:51.758Z,15.08
2022-09-01T04:16:57.343Z,14.67
2022-09-01T04:19:44.478Z,14.98
2022-09-01T04:22:32.140Z,15.20
2022-09-01T04:25:23.317Z,15.08
2022-09-01T04:28:23.074Z,15.22
2022-09-01T04:31:19.578Z,15.15
2022-09-01T04:34:16.383Z,15.19
2022-09-01T04:37:08.870Z,15.39
2022-09-01T04:39:57.391Z,15.27
2022-09-01T04:42:45.180Z,15.28
2022-09-01T04:45:36.339Z,15.26
2022-09-01T04:48:23.479Z,15.30
2022-09-01T04:51:13.330Z,15.25
2022-09-01T04:54:03.002Z,15.33
2022-09-01T04:56:52.910Z,15.47
2022-09-01T04:59:40.233Z,15.43
2022-09-01T05:02:29.092Z,15.38
2022-09-01T05:05:16.180Z,15.21
2022-09-01T05:08:03.199Z,15.13
2022-09-01T05:10:52.613Z,15.34
2022-09-01T05:13:39.855Z,15.18
2022-09-01T05:16:28.040Z,15.07
2022-09-01T05:19:15.064Z,15.18
2022-09-01T05:22:02.335Z,15.34
2022-09-01T05:24:51.552Z,15.58
2022-09-01T05:27:49.823Z,15.65
2022-09-01T05:30:37.783Z,15.65
2022-09-01T05:33:24.967Z,15.63
2022-09-01T05:36:14.782Z,15.83
2022-09-01T05:39:03.324Z,15.70
2022-09-01T05:41:50.277Z,15.95
2022-09-01T05:44:44.141Z,15.67
2022-09-01T05:47:33.287Z,15.84
2022-09-01T05:50:21.609Z,15.96
2022-09-01T05:53:18.686Z,15.81
2022-09-01T05:56:13.271Z,16.07
2022-09-01T06:02:09.563Z,15.97
2022-09-01T06:04:57.331Z,15.75
2022-09-01T06:07:44.466Z,15.68
2022-09-01T06:10:32.502Z,15.94
2022-09-01T06:13:21.896Z,15.71
2022-09-01T06:16:16.934Z,16.22
2022-09-01T06:19:04.957Z,16.19
2022-09-01T06:21:52.181Z,16.70
2022-09-01T06:24:43.451Z,16.54
2022-09-01T06:27:33.889Z,16.82
2022-09-01T06:30:24.358Z,17.11
2022-09-01T06:33:14.184Z,18.71
2022-09-01T06:36:04.025Z,20.02
2022-09-01T06:38:51.513Z,19.51
2022-09-01T06:41:38.720Z,19.68
2022-09-01T06:44:25.746Z,19.61
2022-09-01T06:47:12.743Z,19.48
2022-09-01T06:50:00.742Z,19.08
2022-09-01T06:56:13.483Z,19.22
2022-09-01T06:59:05.207Z,19.94
2022-09-01T07:02:01.438Z,18.68
2022-09-01T07:04:51.965Z,18.34
2022-09-01T07:08:05.068Z,17.92
2022-09-01T07:14:17.248Z,18.30
2022-09-01T07:20:27.248Z,18.35
2022-09-01T07:23:17.182Z,16.86
2022-09-01T07:26:06.974Z,17.06
2022-09-01T07:29:01.103Z,16.38
2022-09-01T07:31:49.554Z,16.76
2022-09-01T07:34:39.010Z,17.51
2022-09-01T07:43:45.382Z,16.45
2022-09-01T07:46:40.314Z,15.72
2022-09-01T07:49:30.102Z,16.46
2022-09-01T07:52:22.650Z,16.54
2022-09-01T07:55:12.419Z,16.93
2022-09-01T07:57:59.569Z,17.36
2022-09-01T08:00:47.648Z,18.56
2022-09-01T08:03:34.964Z,17.35
2022-09-01T08:06:29.298Z,17.61
2022-09-01T08:09:37.874Z,18.30
2022-09-01T08:12:28.903Z,19.19
2022-09-01T08:18:24.686Z,16.87
2022-09-01T08:21:12.856Z,16.29
2022-09-01T08:23:59.795Z,16.59
2022-09-01T08:26:46.740Z,16.73
2022-09-01T08:29:34.186Z,16.84
2022-09-01T08:32:22.552Z,16.86
2022-09-01T08:35:12.537Z,17.49
2022-09-01T08:37:59.945Z,17.34
2022-09-01T08:40:57.057Z,17.98
2022-09-01T08:44:24.045Z,17.63
2022-09-01T08:47:15.682Z,16.81
2022-09-01T08:50:06.168Z,16.47
2022-09-01T08:53:20.973Z,16.46
2022-09-01T08:56:11.403Z,16.44
2022-09-01T09:02:13.609Z,18.70
2022-09-01T09:05:22.149Z,18.55
2022-09-01T09:08:39.431Z,19.81
2022-09-01T09:11:32.292Z,22.68
2022-09-01T09:15:03.408Z,18.21
2022-09-01T09:18:00.364Z,17.93
2022-09-01T09:20:48.108Z,18.09
2022-09-01T09:23:42.181Z,18.29
2022-09-01T09:26:42.205Z,19.08
2022-09-01T09:29:29.955Z,20.22
2022-09-01T09:32:39.541Z,20.30
2022-09-01T09:35:31.686Z,19.48
2022-09-01T09:38:29.380Z,18.98
2022-09-01T09:41:27.285Z,18.59
2022-09-01T09:44:25.440Z,18.16
2022-09-01T09:47:44.517Z,19.57
2022-09-01T09:50:35.649Z,18.35
2022-09-01T09:53:29.074Z,18.76
2022-09-01T09:56:19.696Z,19.73
2022-09-01T09:59:57.101Z,19.44
2022-09-01T10:02:46.250Z,20.72
2022-09-01T10:05:43.278Z,19.44
2022-09-01T10:08:37.584Z,19.59
2022-09-01T10:11:33.432Z,19.33
2022-09-01T10:14:50.330Z,19.74
2022-09-01T10:17:44.448Z,20.85
2022-09-01T10:20:33.231Z,20.87
2022-09-01T10:23:20.394Z,20.15
2022-09-01T10:26:30.007Z,19.32
2022-09-01T10:29:25.526Z,19.42
2022-09-01T10:32:34.973Z,19.41
2022-09-01T10:35:30.579Z,19.48
2022-09-01T10:38:22.162Z,19.58
2022-09-01T10:41:14.966Z,20.32
2022-09-01T10:44:11.756Z,19.64
2022-09-01T10:47:06.199Z,19.89
2022-09-01T10:49:54.960Z,19.79
2022-09-01T10:52:43.367Z,19.83
2022-09-01T10:55:34.986Z,22.41
2022-09-01T11:02:22.291Z,20.50
2022-09-01T11:05:00.895Z,22.81
2022-09-01T11:08:15.264Z,21.32
2022-09-01T11:11:08.006Z,23.83
2022-09-01T11:14:01.707Z,23.48
2022-09-01T11:17:25.392Z,19.81
2022-09-01T11:20:37.582Z,19.76
2022-09-01T11:23:27.969Z,22.94
2022-09-01T11:26:33.201Z,20.96
2022-09-01T11:29:56.380Z,19.99
2022-09-01T11:32:47.682Z,20.31
2022-09-01T11:35:35.050Z,21.13
2022-09-01T11:38:24.285Z,20.57
2022-09-01T11:41:39.255Z,20.26
2022-09-01T11:44:32.692Z,21.00
2022-09-01T11:47:36.637Z,22.16
2022-09-01T11:50:34.845Z,20.28
2022-09-01T11:53:24.001Z,20.90
2022-09-01T11:56:25.588Z,21.04
2022-09-01T11:59:12.689Z,20.67
2022-09-01T12:01:59.742Z,20.51
2022-09-01T12:04:46.836Z,22.27
2022-09-01T12:07:46.135Z,22.65
2022-09-01T12:10:38.040Z,21.32
2022-09-01T12:13:24.961Z,21.16
2022-09-01T12:16:21.555Z,22.12
2022-09-01T12:19:08.608Z,20.94
2022-09-01T12:22:06.976Z,20.10
2022-09-01T12:24:54.863Z,20.13
2022-09-01T12:27:41.884Z,20.28
2022-09-01T12:30:29.208Z,21.17
2022-09-01T12:33:25.978Z,20.87
2022-09-01T12:36:31.897Z,21.01
2022-09-01T12:39:25.349Z,20.83
2022-09-01T12:42:41.114Z,20.46
2022-09-01T12:45:46.144Z,21.14
2022-09-01T12:48:36.820Z,21.48
2022-09-01T12:51:29.304Z,21.59
2022-09-01T12:54:25.934Z,21.01
2022-09-01T12:57:27.988Z,22.14
2022-09-01T13:00:25.086Z,21.05
2022-09-01T13:03:15.208Z,20.51
2022-09-01T13:06:03.889Z,21.69
2022-09-01T13:08:50.788Z,22.04
2022-09-01T13:14:45.848Z,20.26
2022-09-01T13:17:32.795Z,21.92
2022-09-01T13:20:20.181Z,21.02
2022-09-01T13:23:07.129Z,21.26
2022-09-01T13:25:54.208Z,22.19
2022-09-01T13:28:41.179Z,22.32
2022-09-01T13:31:30.356Z,21.36
2022-09-01T13:34:23.336Z,21.84
2022-09-01T13:37:11.076Z,23.20
2022-09-01T13:39:58.110Z,22.07
2022-09-01T13:42:49.523Z,22.15
2022-09-01T13:45:37.180Z,21.83
2022-09-01T13:48:24.152Z,21.98
2022-09-01T13:51:16.974Z,22.10
2022-09-01T13:54:05.499Z,20.49
2022-09-01T13:56:53.281Z,21.72
2022-09-01T13:59:41.920Z,21.52
2022-09-01T14:02:29.008Z,21.97
2022-09-01T14:05:21.505Z,21.05
2022-09-01T14:08:11.020Z,20.89
2022-09-01T14:10:58.018Z,23.22
2022-09-01T14:13:45.975Z,22.51
2022-09-01T14:16:33.095Z,21.01
2022-09-01T14:19:20.071Z,20.94
2022-09-01T14:22:07.166Z,20.73
2022-09-01T14:24:54.128Z,20.60
2022-09-01T14:27:42.480Z,20.39
2022-09-01T14:30:32.915Z,20.81
2022-09-01T14:33:24.324Z,20.29
2022-09-01T14:36:22.491Z,21.02
2022-09-01T14:39:09.570Z,22.89
2022-09-01T14:41:56.546Z,20.86
2022-09-01T14:44:43.786Z,20.44
2022-09-01T14:47:31.915Z,20.60
2022-09-01T14:50:22.958Z,19.98
2022-09-01T14:53:11.363Z,19.83
2022-09-01T14:56:00.467Z,19.84
2022-09-01T14:58:48.580Z,20.22
2022-09-01T15:01:35.791Z,20.16
2022-09-01T15:04:23.189Z,20.06
2022-09-01T15:07:10.171Z,20.10
2022-09-01T15:09:59.012Z,20.44
2022-09-01T15:12:45.950Z,20.79
2022-09-01T15:15:33.023Z,21.43
2022-09-01T15:18:20.139Z,21.72
2022-09-01T15:21:07.196Z,22.22
2022-09-01T15:23:54.928Z,22.59
2022-09-01T15:26:42.218Z,23.37
2022-09-01T15:29:34.038Z,23.07
2022-09-01T15:32:28.289Z,21.67
2022-09-01T15:35:15.887Z,21.14
2022-09-01T15:38:03.203Z,21.47
2022-09-01T15:40:57.992Z,21.62
2022-09-01T15:43:45.743Z,21.47
2022-09-01T15:46:33.887Z,22.21
2022-09-01T15:49:21.008Z,21.68
2022-09-01T15:52:07.962Z,21.19
2022-09-01T15:54:54.960Z,21.37
2022-09-01T15:57:41.963Z,20.92
2022-09-01T16:00:30.167Z,20.74
2022-09-01T16:03:17.516Z,20.65
2022-09-01T16:06:05.102Z,20.46
2022-09-01T16:08:54.378Z,20.23
2022-09-01T16:11:41.854Z,20.48
2022-09-01T16:14:32.053Z,20.45
2022-09-01T16:18:00.362Z,20.03
2022-09-01T16:21:00.635Z,19.97
2022-09-01T16:23:50.292Z,20.28
2022-09-01T16:26:38.197Z,20.35
2022-09-01T16:29:47.807Z,19.94
2022-09-01T16:32:36.958Z,19.93
2022-09-01T16:35:39.999Z,20.31
2022-09-01T16:38:36.267Z,20.05
2022-09-01T16:41:48.308Z,20.27
2022-09-01T16:44:51.769Z,20.49
2022-09-01T16:47:44.961Z,19.97
2022-09-01T16:50:50.521Z,20.02
2022-09-01T16:53:55.764Z,19.71
2022-09-01T16:56:58.670Z,19.94
2022-09-01T16:59:55.837Z,19.70
2022-09-01T17:02:59.296Z,19.71
2022-09-01T17:05:55.492Z,20.13
2022-09-01T17:08:55.451Z,19.83
2022-09-01T17:12:17.785Z,19.39
2022-09-01T17:15:10.204Z,19.30
2022-09-01T17:18:30.271Z,19.34
2022-09-01T17:21:35.723Z,19.14
2022-09-01T17:24:39.294Z,18.74
2022-09-01T17:27:45.703Z,18.51
2022-09-01T17:30:36.303Z,18.56
2022-09-01T17:33:50.067Z,18.56
2022-09-01T17:36:48.112Z,18.48
2022-09-01T17:39:45.115Z,18.10
2022-09-01T17:42:38.073Z,17.99
2022-09-01T17:45:31.206Z,17.80
2022-09-01T17:48:22.057Z,17.72
2022-09-01T17:51:12.182Z,17.68
2022-09-01T17:54:13.310Z,17.63
2022-09-01T17:57:11.157Z,17.78
2022-09-01T18:00:24.445Z,17.57
2022-09-01T18:03:29.588Z,17.29
2022-09-01T18:06:36.621Z,16.92
2022-09-01T18:09:26.905Z,16.87
2022-09-01T18:12:19.203Z,16.64
2022-09-01T18:15:11.042Z,16.50
2022-09-01T18:18:05.264Z,16.18
2022-09-01T18:20:58.129Z,15.78
2022-09-01T18:23:47.266Z,15.60
2022-09-01T18:26:36.950Z,15.34
2022-09-01T18:29:28.463Z,15.29
2022-09-01T18:32:27.626Z,15.19
2022-09-01T18:35:41.655Z,15.00
2022-09-01T18:38:44.502Z,15.39
2022-09-01T18:41:45.098Z,15.80
2022-09-01T18:45:05.581Z,16.06
2022-09-01T18:48:08.277Z,16.04
2022-09-01T18:50:59.713Z,15.87
2022-09-01T18:54:16.142Z,15.79
2022-09-01T18:57:06.047Z,15.58
2022-09-01T18:59:59.774Z,15.24
2022-09-01T19:03:02.223Z,15.24
2022-09-01T19:05:52.174Z,15.21
2022-09-01T19:08:50.429Z,15.08
2022-09-01T19:11:46.533Z,14.96
2022-09-01T19:14:55.053Z,15.06
2022-09-01T19:17:54.164Z,15.20
2022-09-01T19:21:04.311Z,15.21
2022-09-01T19:23:54.082Z,15.27
2022-09-01T19:26:44.837Z,15.22
2022-09-01T19:29:37.587Z,15.19
2022-09-01T19:32:28.797Z,15.09
2022-09-01T19:35:17.191Z,15.14
2022-09-01T19:38:05.988Z,14.96
2022-09-01T19:40:58.948Z,14.96
2022-09-01T19:43:48.281Z,14.95
2022-09-01T19:46:44.050Z,14.97
2022-09-01T19:49:57.200Z,14.92
2022-09-01T19:53:02.729Z,14.87
2022-09-01T19:56:15.603Z,14.93
2022-09-01T19:59:27.280Z,15.05
2022-09-01T20:02:30.774Z,14.79
2022-09-01T20:05:33.583Z,14.79
2022-09-01T20:08:39.921Z,14.78
2022-09-01T20:12:12.319Z,14.78
2022-09-01T20:15:34.914Z,14.83
2022-09-01T20:18:31.253Z,14.79
2022-09-01T20:21:21.534Z,14.69
2022-09-01T20:24:19.564Z,14.59
2022-09-01T20:27:12.449Z,14.64
2022-09-01T20:30:07.590Z,14.58
2022-09-01T20:33:05.188Z,14.50
2022-09-01T20:36:02.471Z,14.38
2022-09-01T20:39:14.340Z,14.34
2022-09-01T20:42:19.833Z,14.34
2022-09-01T20:45:19.428Z,14.44
2022-09-01T20:48:23.282Z,14.38
2022-09-01T20:51:21.463Z,14.26
2022-09-01T20:54:20.176Z,14.25
2022-09-01T20:57:29.012Z,14.10
2022-09-01T21:00:27.716Z,14.22
2022-09-01T21:03:32.501Z,14.27
2022-09-01T21:06:54.582Z,14.30
2022-09-01T21:09:55.854Z,14.19
2022-09-01T21:12:52.338Z,14.27
2022-09-01T21:15:55.133Z,14.03
2022-09-01T21:18:53.012Z,14.16
2022-09-01T21:22:07.134Z,14.18
2022-09-01T21:24:54.060Z,14.28
2022-09-01T21:27:51.402Z,14.26
2022-09-01T21:30:38.480Z,14.28
2022-09-01T21:33:29.321Z,14.26
2022-09-01T21:36:16.973Z,14.27
2022-09-01T21:39:03.949Z,14.16
2022-09-01T21:41:50.998Z,14.15
2022-09-01T21:44:39.345Z,14.22
2022-09-01T21:47:26.880Z,14.01
2022-09-01T21:50:16.856Z,13.94
2022-09-01T21:53:04.037Z,14.07
2022-09-01T21:55:50.976Z,13.94
2022-09-01T21:58:39.346Z,13.94
2022-09-01T22:01:31.080Z,13.85
2022-09-01T22:04:18.556Z,13.96
2022-09-01T22:07:09.191Z,13.75
2022-09-01T22:09:57.795Z,13.84
2022-09-01T22:12:47.439Z,13.71
2022-09-01T22:15:34.375Z,13.75
2022-09-01T22:18:22.500Z,13.85
2022-09-01T22:21:11.203Z,13.74
2022-09-01T22:23:58.198Z,13.65
2022-09-01T22:26:46.247Z,13.74
2022-09-01T22:29:33.281Z,13.51
2022-09-01T22:32:21.599Z,13.43
2022-09-01T22:35:10.131Z,13.44
2022-09-01T22:37:57.092Z,13.48
2022-09-01T22:40:56.044Z,13.34
2022-09-01T22:43:43.163Z,13.38
2022-09-01T22:46:30.921Z,13.29
2022-09-01T22:49:18.012Z,13.33
2022-09-01T22:52:05.052Z,13.29
2022-09-01T22:54:52.027Z,13.31
2022-09-01T22:57:39.008Z,13.27
2022-09-01T23:00:26.025Z,13.18
2022-09-01T23:03:14.937Z,13.11
2022-09-01T23:06:07.752Z,13.10
2022-09-01T23:08:56.257Z,13.01
2022-09-01T23:11:43.654Z,13.14
2022-09-01T23:14:30.658Z,13.10
2022-09-01T23:17:17.634Z,13.01
2022-09-01T23:20:08.299Z,13.01
2022-09-01T23:22:55.286Z,12.91
2022-09-01T23:25:43.893Z,12.94
2022-09-01T23:28:31.131Z,12.83
2022-09-01T23:31:21.835Z,12.86
2022-09-01T23:34:09.115Z,12.81
2022-09-01T23:36:56.082Z,13.02
2022-09-01T23:39:43.036Z,12.91
2022-09-01T23:42:30.017Z,12.77
2022-09-01T23:45:17.096Z,12.77
2022-09-01T23:48:04.112Z,12.70
2022-09-01T23:50:54.500Z,12.70
2022-09-01T23:53:41.542Z,12.66
2022-09-01T23:56:29.888Z,12.70
2022-09-01T23:59:16.961Z,12.60
